sensor_id;sensor_type;location;lat;lon;timestamp;pressure;altitude;pressure_sealevel;temperature;humidity
29461;BME280;16428;47.836;35.106;2024-01-15T00:00:35;100284.41;;;-2.92;100.00
29461;BME280;16428;47.836;35.106;2024-01-15T00:03:03;100307.38;;;-2.68;100.00
29461;BME280;16428;47.836;35.106;2024-01-15T00:05:30;100297.88;;;-2.84;100.00
29461;BME280;16428;47.836;35.106;2024-01-15T00:07:57;100299.75;;;-2.86;100.00
29461;BME280;16428;47.836;35.106;2024-01-15T00:10:24;100298.53;;;-2.67;100.00
29461;BME280;16428;47.836;35.106;2024-01-15T00:12:51;100303.78;;;-2.80;100.00
29461;BME280;16428;47.836;35.106;2024-01-15T00:15:18;100300.84;;;-2.75;100.00
29461;BME280;16428;47.836;35.106;2024-01-15T00:17:45;100301.41;;;-2.97;100.00
29461;BME280;16428;47.836;35.106;2024-01-15T00:20:12;100312.38;;;-2.91;100.00
29461;BME280;16428;47.836;35.106;2024-01-15T00:22:40;100304.63;;;-2.79;100.00
29461;BME280;16428;47.836;35.106;2024-01-15T00:25:07;100304.19;;;-2.73;100.00
29461;BME280;16428;47.836;35.106;2024-01-15T00:27:34;100305.66;;;-2.82;100.00
29461;BME280;16428;47.836;35.106;2024-01-15T00:30:02;100303.31;;;-2.87;100.00
29461;BME280;16428;47.836;35.106;2024-01-15T00:32:29;100312.56;;;-2.94;100.00
29461;BME280;16428;47.836;35.106;2024-01-15T00:34:57;100306.72;;;-3.11;100.00
29461;BME280;16428;47.836;35.106;2024-01-15T00:37:24;100307.22;;;-3.19;100.00
29461;BME280;16428;47.836;35.106;2024-01-15T00:39:51;100309.50;;;-3.27;100.00
29461;BME280;16428;47.836;35.106;2024-01-15T00:42:18;100319.88;;;-3.38;100.00
29461;BME280;16428;47.836;35.106;2024-01-15T00:44:45;100316.53;;;-3.55;100.00
29461;BME280;16428;47.836;35.106;2024-01-15T00:47:12;100343.63;;;-3.54;100.00
29461;BME280;16428;47.836;35.106;2024-01-15T00:49:39;100335.44;;;-3.49;100.00
29461;BME280;16428;47.836;35.106;2024-01-15T00:52:06;100340.44;;;-3.59;100.00
29461;BME280;16428;47.836;35.106;2024-01-15T00:54:33;100351.97;;;-3.62;100.00
29461;BME280;16428;47.836;35.106;2024-01-15T00:57:00;100358.66;;;-3.70;100.00
29461;BME280;16428;47.836;35.106;2024-01-15T00:59:28;100354.78;;;-3.79;100.00
29461;BME280;16428;47.836;35.106;2024-01-15T01:01:55;100364.19;;;-3.89;100.00
29461;BME280;16428;47.836;35.106;2024-01-15T01:04:22;100362.50;;;-4.04;100.00
29461;BME280;16428;47.836;35.106;2024-01-15T01:06:49;100356.66;;;-4.09;100.00
29461;BME280;16428;47.836;35.106;2024-01-15T01:09:16;100369.09;;;-4.27;100.00
29461;BME280;16428;47.836;35.106;2024-01-15T01:11:43;100361.22;;;-4.41;100.00
29461;BME280;16428;47.836;35.106;2024-01-15T01:14:10;100360.56;;;-4.45;100.00
29461;BME280;16428;47.836;35.106;2024-01-15T01:16:37;100371.41;;;-4.51;100.00
29461;BME280;16428;47.836;35.106;2024-01-15T01:19:06;100356.78;;;-4.55;100.00
29461;BME280;16428;47.836;35.106;2024-01-15T01:21:34;100358.03;;;-4.46;100.00
29461;BME280;16428;47.836;35.106;2024-01-15T01:24:01;100354.78;;;-4.36;100.00
29461;BME280;16428;47.836;35.106;2024-01-15T01:26:29;100367.97;;;-4.37;100.00
29461;BME280;16428;47.836;35.106;2024-01-15T01:28:57;100377.09;;;-4.29;100.00
29461;BME280;16428;47.836;35.106;2024-01-15T01:31:24;100370.50;;;-4.36;100.00
29461;BME280;16428;47.836;35.106;2024-01-15T01:33:51;100376.25;;;-4.29;100.00
29461;BME280;16428;47.836;35.106;2024-01-15T01:36:18;100378.97;;;-4.31;100.00
29461;BME280;16428;47.836;35.106;2024-01-15T01:38:45;100377.09;;;-4.29;100.00
29461;BME280;16428;47.836;35.106;2024-01-15T01:41:12;100377.63;;;-4.23;100.00
29461;BME280;16428;47.836;35.106;2024-01-15T01:43:43;100382.50;;;-4.32;100.00
29461;BME280;16428;47.836;35.106;2024-01-15T01:46:10;100385.34;;;-4.20;100.00
29461;BME280;16428;47.836;35.106;2024-01-15T01:48:39;100373.81;;;-4.18;100.00
29461;BME280;16428;47.836;35.106;2024-01-15T01:51:07;100374.84;;;-4.20;100.00
29461;BME280;16428;47.836;35.106;2024-01-15T01:53:35;100384.97;;;-4.14;100.00
29461;BME280;16428;47.836;35.106;2024-01-15T01:56:04;100386.47;;;-4.10;100.00
29461;BME280;16428;47.836;35.106;2024-01-15T01:58:32;100394.16;;;-4.07;100.00
29461;BME280;16428;47.836;35.106;2024-01-15T02:01:00;100385.53;;;-4.09;100.00
29461;BME280;16428;47.836;35.106;2024-01-15T02:03:29;100382.16;;;-4.11;100.00
29461;BME280;16428;47.836;35.106;2024-01-15T02:05:59;100388.88;;;-4.21;100.00
29461;BME280;16428;47.836;35.106;2024-01-15T02:08:27;100391.53;;;-4.07;100.00
29461;BME280;16428;47.836;35.106;2024-01-15T02:11:00;100393.97;;;-4.04;100.00
29461;BME280;16428;47.836;35.106;2024-01-15T02:13:28;100393.97;;;-3.90;100.00
29461;BME280;16428;47.836;35.106;2024-01-15T02:15:59;100387.97;;;-3.92;100.00
29461;BME280;16428;47.836;35.106;2024-01-15T02:18:50;100382.56;;;-3.89;100.00
29461;BME280;16428;47.836;35.106;2024-01-15T02:21:18;100378.81;;;-3.71;100.00
29461;BME280;16428;47.836;35.106;2024-01-15T02:23:47;100386.59;;;-3.69;100.00
29461;BME280;16428;47.836;35.106;2024-01-15T02:26:16;100398.19;;;-3.87;100.00
29461;BME280;16428;47.836;35.106;2024-01-15T02:28:51;100404.97;;;-3.83;100.00
29461;BME280;16428;47.836;35.106;2024-01-15T02:31:33;100404.47;;;-3.90;100.00
29461;BME280;16428;47.836;35.106;2024-01-15T02:34:03;100406.81;;;-4.00;100.00
29461;BME280;16428;47.836;35.106;2024-01-15T02:36:34;100413.19;;;-3.90;100.00
29461;BME280;16428;47.836;35.106;2024-01-15T02:39:09;100408.97;;;-3.78;100.00
29461;BME280;16428;47.836;35.106;2024-01-15T02:41:51;100416.56;;;-3.73;100.00
29461;BME280;16428;47.836;35.106;2024-01-15T02:44:24;100422.31;;;-3.52;100.00
29461;BME280;16428;47.836;35.106;2024-01-15T02:46:53;100428.94;;;-3.47;100.00
29461;BME280;16428;47.836;35.106;2024-01-15T02:49:30;100425.38;;;-3.46;100.00
29461;BME280;16428;47.836;35.106;2024-01-15T02:51:59;100432.78;;;-3.38;100.00
29461;BME280;16428;47.836;35.106;2024-01-15T02:54:31;100428.84;;;-3.45;100.00
29461;BME280;16428;47.836;35.106;2024-01-15T02:57:02;100427.91;;;-3.59;100.00
29461;BME280;16428;47.836;35.106;2024-01-15T02:59:38;100423.78;;;-3.63;100.00
29461;BME280;16428;47.836;35.106;2024-01-15T03:02:05;100436.91;;;-3.77;100.00
29461;BME280;16428;47.836;35.106;2024-01-15T03:04:35;100447.72;;;-3.67;100.00
29461;BME280;16428;47.836;35.106;2024-01-15T03:07:12;100449.81;;;-4.02;100.00
29461;BME280;16428;47.836;35.106;2024-01-15T03:09:47;100453.56;;;-3.92;100.00
29461;BME280;16428;47.836;35.106;2024-01-15T03:12:24;100453.03;;;-3.83;100.00
29461;BME280;16428;47.836;35.106;2024-01-15T03:14:54;100444.22;;;-3.82;100.00
29461;BME280;16428;47.836;35.106;2024-01-15T03:17:47;100443.66;;;-3.87;100.00
29461;BME280;16428;47.836;35.106;2024-01-15T03:20:29;100442.34;;;-3.80;100.00
29461;BME280;16428;47.836;35.106;2024-01-15T03:23:09;100445.50;;;-4.03;100.00
29461;BME280;16428;47.836;35.106;2024-01-15T03:25:41;100450.28;;;-3.96;100.00
29461;BME280;16428;47.836;35.106;2024-01-15T03:28:15;100464.44;;;-3.98;100.00
29461;BME280;16428;47.836;35.106;2024-01-15T03:30:49;100458.25;;;-3.97;100.00
29461;BME280;16428;47.836;35.106;2024-01-15T03:33:16;100454.66;;;-4.10;100.00
29461;BME280;16428;47.836;35.106;2024-01-15T03:35:48;100460.22;;;-4.01;100.00
29461;BME280;16428;47.836;35.106;2024-01-15T03:38:20;100463.63;;;-3.84;100.00
29461;BME280;16428;47.836;35.106;2024-01-15T03:40:59;100469.50;;;-3.81;100.00
29461;BME280;16428;47.836;35.106;2024-01-15T03:43:27;100480.31;;;-3.85;100.00
29461;BME280;16428;47.836;35.106;2024-01-15T03:46:04;100496.91;;;-3.85;100.00
29461;BME280;16428;47.836;35.106;2024-01-15T03:48:39;100501.47;;;-3.88;100.00
29461;BME280;16428;47.836;35.106;2024-01-15T03:51:09;100487.53;;;-3.75;100.00
29461;BME280;16428;47.836;35.106;2024-01-15T03:53:43;100484.06;;;-3.75;100.00
29461;BME280;16428;47.836;35.106;2024-01-15T03:56:11;100472.97;;;-3.80;100.00
29461;BME280;16428;47.836;35.106;2024-01-15T03:58:53;100483.19;;;-3.90;100.00
29461;BME280;16428;47.836;35.106;2024-01-15T04:01:30;100477.78;;;-3.87;100.00
29461;BME280;16428;47.836;35.106;2024-01-15T04:04:05;100475.50;;;-3.93;100.00
29461;BME280;16428;47.836;35.106;2024-01-15T04:06:34;100479.19;;;-4.11;100.00
29461;BME280;16428;47.836;35.106;2024-01-15T04:09:08;100477.81;;;-4.03;100.00
29461;BME280;16428;47.836;35.106;2024-01-15T04:11:39;100481.97;;;-3.99;100.00
29461;BME280;16428;47.836;35.106;2024-01-15T04:14:15;100482.19;;;-4.17;100.00
29461;BME280;16428;47.836;35.106;2024-01-15T04:16:45;100482.97;;;-4.15;100.00
29461;BME280;16428;47.836;35.106;2024-01-15T04:19:12;100477.41;;;-4.41;100.00
29461;BME280;16428;47.836;35.106;2024-01-15T04:21:55;100474.19;;;-4.60;100.00
29461;BME280;16428;47.836;35.106;2024-01-15T04:24:25;100471.69;;;-4.47;100.00
29461;BME280;16428;47.836;35.106;2024-01-15T04:27:03;100484.00;;;-4.34;100.00
29461;BME280;16428;47.836;35.106;2024-01-15T04:29:39;100481.81;;;-4.41;100.00
29461;BME280;16428;47.836;35.106;2024-01-15T04:32:08;100483.97;;;-4.48;100.00
29461;BME280;16428;47.836;35.106;2024-01-15T04:34:38;100490.41;;;-4.23;100.00
29461;BME280;16428;47.836;35.106;2024-01-15T04:37:13;100497.00;;;-4.16;100.00
29461;BME280;16428;47.836;35.106;2024-01-15T04:39:43;100496.44;;;-4.07;100.00
29461;BME280;16428;47.836;35.106;2024-01-15T04:42:10;100501.69;;;-4.07;100.00
29461;BME280;16428;47.836;35.106;2024-01-15T04:44:37;100502.63;;;-4.08;100.00
29461;BME280;16428;47.836;35.106;2024-01-15T04:47:08;100515.19;;;-4.13;100.00
29461;BME280;16428;47.836;35.106;2024-01-15T04:49:38;100518.28;;;-4.07;100.00
29461;BME280;16428;47.836;35.106;2024-01-15T04:52:11;100525.56;;;-4.12;100.00
29461;BME280;16428;47.836;35.106;2024-01-15T04:54:42;100530.50;;;-4.21;100.00
29461;BME280;16428;47.836;35.106;2024-01-15T04:57:12;100529.41;;;-4.17;100.00
29461;BME280;16428;47.836;35.106;2024-01-15T04:59:39;100530.53;;;-4.37;100.00
29461;BME280;16428;47.836;35.106;2024-01-15T05:02:10;100518.84;;;-4.32;100.00
29461;BME280;16428;47.836;35.106;2024-01-15T05:04:37;100518.31;;;-4.22;100.00
29461;BME280;16428;47.836;35.106;2024-01-15T05:07:08;100513.94;;;-4.38;100.00
29461;BME280;16428;47.836;35.106;2024-01-15T05:09:38;100515.47;;;-4.34;100.00
29461;BME280;16428;47.836;35.106;2024-01-15T05:12:17;100524.28;;;-4.35;100.00
29461;BME280;16428;47.836;35.106;2024-01-15T05:15:01;100539.31;;;-4.38;100.00
29461;BME280;16428;47.836;35.106;2024-01-15T05:17:34;100540.34;;;-4.56;100.00
29461;BME280;16428;47.836;35.106;2024-01-15T05:20:07;100545.09;;;-4.63;100.00
29461;BME280;16428;47.836;35.106;2024-01-15T05:22:37;100540.88;;;-4.66;100.00
29461;BME280;16428;47.836;35.106;2024-01-15T05:25:08;100551.19;;;-4.47;100.00
29461;BME280;16428;47.836;35.106;2024-01-15T05:27:36;100556.34;;;-4.45;100.00
29461;BME280;16428;47.836;35.106;2024-01-15T05:30:06;100552.44;;;-4.70;100.00
29461;BME280;16428;47.836;35.106;2024-01-15T05:32:50;100555.59;;;-4.47;100.00
29461;BME280;16428;47.836;35.106;2024-01-15T05:35:18;100557.78;;;-4.55;100.00
29461;BME280;16428;47.836;35.106;2024-01-15T05:37:54;100565.72;;;-4.57;100.00
29461;BME280;16428;47.836;35.106;2024-01-15T05:40:21;100558.97;;;-4.61;100.00
29461;BME280;16428;47.836;35.106;2024-01-15T05:42:54;100555.06;;;-4.54;100.00
29461;BME280;16428;47.836;35.106;2024-01-15T05:45:30;100556.75;;;-4.69;100.00
29461;BME280;16428;47.836;35.106;2024-01-15T05:48:03;100562.09;;;-4.70;100.00
29461;BME280;16428;47.836;35.106;2024-01-15T05:50:33;100561.50;;;-4.75;100.00
29461;BME280;16428;47.836;35.106;2024-01-15T05:53:03;100565.81;;;-4.74;100.00
29461;BME280;16428;47.836;35.106;2024-01-15T05:55:32;100566.56;;;-4.72;100.00
29461;BME280;16428;47.836;35.106;2024-01-15T05:58:08;100575.88;;;-4.51;100.00
29461;BME280;16428;47.836;35.106;2024-01-15T06:00:43;100571.16;;;-4.60;100.00
29461;BME280;16428;47.836;35.106;2024-01-15T06:03:24;100580.78;;;-4.76;100.00
29461;BME280;16428;47.836;35.106;2024-01-15T06:05:56;100581.19;;;-5.17;100.00
29461;BME280;16428;47.836;35.106;2024-01-15T06:08:23;100585.16;;;-4.92;100.00
29461;BME280;16428;47.836;35.106;2024-01-15T06:10:56;100587.34;;;-4.69;100.00
29461;BME280;16428;47.836;35.106;2024-01-15T06:13:32;100578.56;;;-4.68;100.00
29461;BME280;16428;47.836;35.106;2024-01-15T06:16:00;100582.13;;;-4.38;100.00
29461;BME280;16428;47.836;35.106;2024-01-15T06:18:35;100596.69;;;-4.32;100.00
29461;BME280;16428;47.836;35.106;2024-01-15T06:21:05;100604.63;;;-4.49;100.00
29461;BME280;16428;47.836;35.106;2024-01-15T06:23:44;100596.16;;;-4.39;100.00
29461;BME280;16428;47.836;35.106;2024-01-15T06:26:13;100601.56;;;-4.57;100.00
29461;BME280;16428;47.836;35.106;2024-01-15T06:28:43;100588.38;;;-4.40;100.00
29461;BME280;16428;47.836;35.106;2024-01-15T06:31:10;100597.00;;;-4.22;100.00
29461;BME280;16428;47.836;35.106;2024-01-15T06:33:37;100595.47;;;-4.42;100.00
29461;BME280;16428;47.836;35.106;2024-01-15T06:36:05;100597.34;;;-4.13;100.00
29461;BME280;16428;47.836;35.106;2024-01-15T06:38:32;100594.81;;;-4.46;100.00
29461;BME280;16428;47.836;35.106;2024-01-15T06:41:00;100610.66;;;-3.86;100.00
29461;BME280;16428;47.836;35.106;2024-01-15T06:43:27;100615.22;;;-3.90;100.00
29461;BME280;16428;47.836;35.106;2024-01-15T06:45:54;100625.50;;;-4.01;100.00
29461;BME280;16428;47.836;35.106;2024-01-15T06:48:21;100638.94;;;-3.91;100.00
29461;BME280;16428;47.836;35.106;2024-01-15T06:50:49;100630.44;;;-3.80;100.00
29461;BME280;16428;47.836;35.106;2024-01-15T06:53:17;100622.19;;;-3.88;100.00
29461;BME280;16428;47.836;35.106;2024-01-15T06:55:44;100640.94;;;-3.80;100.00
29461;BME280;16428;47.836;35.106;2024-01-15T06:58:11;100631.13;;;-3.77;100.00
29461;BME280;16428;47.836;35.106;2024-01-15T07:00:38;100628.94;;;-3.84;100.00
29461;BME280;16428;47.836;35.106;2024-01-15T07:03:05;100623.13;;;-3.60;100.00
29461;BME280;16428;47.836;35.106;2024-01-15T07:05:32;100627.06;;;-3.67;100.00
29461;BME280;16428;47.836;35.106;2024-01-15T07:07:59;100630.19;;;-3.76;100.00
29461;BME280;16428;47.836;35.106;2024-01-15T07:10:26;100628.97;;;-3.55;100.00
29461;BME280;16428;47.836;35.106;2024-01-15T07:12:53;100616.72;;;-3.26;100.00
29461;BME280;16428;47.836;35.106;2024-01-15T07:15:21;100625.75;;;-3.15;100.00
29461;BME280;16428;47.836;35.106;2024-01-15T07:17:48;100610.25;;;-3.20;100.00
29461;BME280;16428;47.836;35.106;2024-01-15T07:20:15;100616.00;;;-2.85;100.00
29461;BME280;16428;47.836;35.106;2024-01-15T07:22:42;100619.56;;;-2.86;100.00
29461;BME280;16428;47.836;35.106;2024-01-15T07:25:09;100623.22;;;-2.74;100.00
29461;BME280;16428;47.836;35.106;2024-01-15T07:27:36;100621.59;;;-2.34;100.00
29461;BME280;16428;47.836;35.106;2024-01-15T07:30:04;100633.44;;;-2.56;100.00
29461;BME280;16428;47.836;35.106;2024-01-15T07:32:33;100623.94;;;-2.30;100.00
29461;BME280;16428;47.836;35.106;2024-01-15T07:35:00;100628.78;;;-2.24;100.00
29461;BME280;16428;47.836;35.106;2024-01-15T07:37:27;100622.16;;;-2.43;100.00
29461;BME280;16428;47.836;35.106;2024-01-15T07:39:55;100622.56;;;-2.08;100.00
29461;BME280;16428;47.836;35.106;2024-01-15T07:42:22;100627.25;;;-1.99;100.00
29461;BME280;16428;47.836;35.106;2024-01-15T07:44:49;100632.84;;;-1.91;100.00
29461;BME280;16428;47.836;35.106;2024-01-15T07:47:18;100636.63;;;-1.68;100.00
29461;BME280;16428;47.836;35.106;2024-01-15T07:49:45;100637.34;;;-1.66;100.00
29461;BME280;16428;47.836;35.106;2024-01-15T07:52:12;100638.72;;;-1.61;100.00
29461;BME280;16428;47.836;35.106;2024-01-15T07:54:40;100640.19;;;-1.69;100.00
29461;BME280;16428;47.836;35.106;2024-01-15T07:57:07;100634.97;;;-2.10;100.00
29461;BME280;16428;47.836;35.106;2024-01-15T07:59:35;100638.06;;;-1.64;100.00
29461;BME280;16428;47.836;35.106;2024-01-15T08:02:02;100640.22;;;-1.57;100.00
29461;BME280;16428;47.836;35.106;2024-01-15T08:04:29;100651.16;;;-1.63;100.00
29461;BME280;16428;47.836;35.106;2024-01-15T08:06:57;100642.09;;;-1.59;100.00
29461;BME280;16428;47.836;35.106;2024-01-15T08:09:25;100645.25;;;-1.14;100.00
29461;BME280;16428;47.836;35.106;2024-01-15T08:11:52;100649.38;;;-1.10;100.00
29461;BME280;16428;47.836;35.106;2024-01-15T08:14:19;100648.97;;;-0.79;100.00
29461;BME280;16428;47.836;35.106;2024-01-15T08:16:46;100655.16;;;-1.18;100.00
29461;BME280;16428;47.836;35.106;2024-01-15T08:19:13;100655.50;;;-0.97;100.00
29461;BME280;16428;47.836;35.106;2024-01-15T08:21:41;100653.34;;;-0.54;100.00
29461;BME280;16428;47.836;35.106;2024-01-15T08:24:09;100654.63;;;-0.59;100.00
29461;BME280;16428;47.836;35.106;2024-01-15T08:26:36;100649.66;;;-0.51;100.00
29461;BME280;16428;47.836;35.106;2024-01-15T08:29:03;100656.78;;;0.09;100.00
29461;BME280;16428;47.836;35.106;2024-01-15T08:31:31;100655.94;;;0.32;100.00
29461;BME280;16428;47.836;35.106;2024-01-15T08:33:58;100652.41;;;-0.04;100.00
29461;BME280;16428;47.836;35.106;2024-01-15T08:36:26;100651.34;;;-0.14;100.00
29461;BME280;16428;47.836;35.106;2024-01-15T08:38:53;100650.47;;;0.46;100.00
29461;BME280;16428;47.836;35.106;2024-01-15T08:41:20;100653.47;;;0.18;100.00
29461;BME280;16428;47.836;35.106;2024-01-15T08:43:48;100649.59;;;0.11;100.00
29461;BME280;16428;47.836;35.106;2024-01-15T08:46:17;100653.41;;;0.54;100.00
29461;BME280;16428;47.836;35.106;2024-01-15T08:48:44;100659.03;;;0.85;100.00
29461;BME280;16428;47.836;35.106;2024-01-15T08:51:11;100656.19;;;1.10;99.32
29461;BME280;16428;47.836;35.106;2024-01-15T08:53:39;100659.31;;;0.58;99.47
29461;BME280;16428;47.836;35.106;2024-01-15T08:56:06;100643.41;;;0.93;99.93
29461;BME280;16428;47.836;35.106;2024-01-15T08:58:33;100646.75;;;0.73;99.08
29461;BME280;16428;47.836;35.106;2024-01-15T09:01:00;100636.91;;;0.75;99.97
29461;BME280;16428;47.836;35.106;2024-01-15T09:03:28;100633.53;;;0.73;99.62
29461;BME280;16428;47.836;35.106;2024-01-15T09:05:55;100631.63;;;0.86;99.98
29461;BME280;16428;47.836;35.106;2024-01-15T09:08:22;100631.00;;;0.36;100.00
29461;BME280;16428;47.836;35.106;2024-01-15T09:10:49;100624.50;;;0.29;100.00
29461;BME280;16428;47.836;35.106;2024-01-15T09:13:16;100627.81;;;0.55;100.00
29461;BME280;16428;47.836;35.106;2024-01-15T09:15:43;100627.22;;;0.62;100.00
29461;BME280;16428;47.836;35.106;2024-01-15T09:18:11;100620.22;;;0.96;100.00
29461;BME280;16428;47.836;35.106;2024-01-15T09:20:38;100620.13;;;1.42;100.00
29461;BME280;16428;47.836;35.106;2024-01-15T09:23:05;100626.88;;;1.47;100.00
29461;BME280;16428;47.836;35.106;2024-01-15T09:25:32;100614.72;;;1.11;100.00
29461;BME280;16428;47.836;35.106;2024-01-15T09:28:00;100612.19;;;1.54;100.00
29461;BME280;16428;47.836;35.106;2024-01-15T09:30:27;100618.91;;;1.69;100.00
29461;BME280;16428;47.836;35.106;2024-01-15T09:32:54;100620.25;;;2.18;100.00
29461;BME280;16428;47.836;35.106;2024-01-15T09:35:21;100627.78;;;2.33;97.37
29461;BME280;16428;47.836;35.106;2024-01-15T09:37:51;100615.72;;;2.61;96.86
29461;BME280;16428;47.836;35.106;2024-01-15T09:40:20;100626.72;;;2.77;92.33
29461;BME280;16428;47.836;35.106;2024-01-15T09:42:48;100618.06;;;3.17;91.46
29461;BME280;16428;47.836;35.106;2024-01-15T09:45:16;100616.56;;;2.62;92.23
29461;BME280;16428;47.836;35.106;2024-01-15T09:47:43;100619.44;;;3.21;90.54
29461;BME280;16428;47.836;35.106;2024-01-15T09:50:13;100623.25;;;3.59;90.80
29461;BME280;16428;47.836;35.106;2024-01-15T09:52:43;100621.41;;;3.99;89.16
29461;BME280;16428;47.836;35.106;2024-01-15T09:55:12;100622.22;;;3.90;86.24
29461;BME280;16428;47.836;35.106;2024-01-15T09:57:39;100614.97;;;3.92;86.61
29461;BME280;16428;47.836;35.106;2024-01-15T10:00:07;100619.97;;;3.85;87.12
29461;BME280;16428;47.836;35.106;2024-01-15T10:02:38;100607.75;;;3.64;85.38
29461;BME280;16428;47.836;35.106;2024-01-15T10:05:05;100592.53;;;3.66;86.52
29461;BME280;16428;47.836;35.106;2024-01-15T10:07:35;100594.81;;;3.80;86.00
29461;BME280;16428;47.836;35.106;2024-01-15T10:10:04;100576.66;;;3.45;85.91
29461;BME280;16428;47.836;35.106;2024-01-15T10:12:32;100577.25;;;3.18;86.37
29461;BME280;16428;47.836;35.106;2024-01-15T10:15:00;100578.63;;;3.52;88.09
29461;BME280;16428;47.836;35.106;2024-01-15T10:17:27;100576.94;;;3.42;88.23
29461;BME280;16428;47.836;35.106;2024-01-15T10:19:55;100569.53;;;3.36;86.58
29461;BME280;16428;47.836;35.106;2024-01-15T10:22:23;100563.00;;;3.59;88.36
29461;BME280;16428;47.836;35.106;2024-01-15T10:24:51;100557.56;;;3.61;87.82
29461;BME280;16428;47.836;35.106;2024-01-15T10:27:18;100550.44;;;3.71;88.43
29461;BME280;16428;47.836;35.106;2024-01-15T10:29:45;100549.63;;;3.21;88.21
29461;BME280;16428;47.836;35.106;2024-01-15T10:32:13;100547.06;;;3.49;89.48
29461;BME280;16428;47.836;35.106;2024-01-15T10:34:40;100533.72;;;3.30;89.49
29461;BME280;16428;47.836;35.106;2024-01-15T10:37:09;100540.34;;;3.45;89.18
29461;BME280;16428;47.836;35.106;2024-01-15T10:39:37;100517.84;;;3.09;91.05
29461;BME280;16428;47.836;35.106;2024-01-15T10:42:05;100518.78;;;2.99;91.06
29461;BME280;16428;47.836;35.106;2024-01-15T10:44:35;100523.03;;;3.61;93.36
29461;BME280;16428;47.836;35.106;2024-01-15T10:47:03;100528.50;;;3.69;90.93
29461;BME280;16428;47.836;35.106;2024-01-15T10:49:31;100515.38;;;3.77;91.89
29461;BME280;16428;47.836;35.106;2024-01-15T10:52:03;100510.31;;;3.74;92.01
29461;BME280;16428;47.836;35.106;2024-01-15T10:54:32;100506.56;;;4.05;90.88
29461;BME280;16428;47.836;35.106;2024-01-15T10:57:00;100509.09;;;4.16;88.83
29461;BME280;16428;47.836;35.106;2024-01-15T10:59:29;100508.13;;;4.08;90.20
29461;BME280;16428;47.836;35.106;2024-01-15T11:01:56;100499.38;;;4.44;90.79
29461;BME280;16428;47.836;35.106;2024-01-15T11:04:23;100490.47;;;4.36;91.13
29461;BME280;16428;47.836;35.106;2024-01-15T11:06:55;100485.16;;;4.16;93.66
29461;BME280;16428;47.836;35.106;2024-01-15T11:09:24;100488.09;;;4.42;92.19
29461;BME280;16428;47.836;35.106;2024-01-15T11:12:12;100472.53;;;4.28;90.01
29461;BME280;16428;47.836;35.106;2024-01-15T11:14:42;100477.81;;;4.47;89.14
29461;BME280;16428;47.836;35.106;2024-01-15T11:17:13;100482.91;;;4.87;87.12
29461;BME280;16428;47.836;35.106;2024-01-15T11:22:09;100479.53;;;4.29;88.02
29461;BME280;16428;47.836;35.106;2024-01-15T11:24:38;100487.06;;;4.53;88.45
29461;BME280;16428;47.836;35.106;2024-01-15T11:27:09;100474.75;;;4.52;90.96
29461;BME280;16428;47.836;35.106;2024-01-15T11:29:37;100477.47;;;4.04;90.86
29461;BME280;16428;47.836;35.106;2024-01-15T11:32:07;100467.69;;;4.70;91.15
29461;BME280;16428;47.836;35.106;2024-01-15T11:34:54;100478.47;;;4.69;90.12
29461;BME280;16428;47.836;35.106;2024-01-15T11:37:27;100479.97;;;4.34;91.42
29461;BME280;16428;47.836;35.106;2024-01-15T11:40:00;100479.59;;;3.91;93.99
29461;BME280;16428;47.836;35.106;2024-01-15T11:42:28;100470.00;;;4.46;95.97
29461;BME280;16428;47.836;35.106;2024-01-15T11:44:55;100478.66;;;4.57;94.14
29461;BME280;16428;47.836;35.106;2024-01-15T11:50:08;100469.53;;;4.60;96.23
29461;BME280;16428;47.836;35.106;2024-01-15T11:52:38;100466.94;;;4.41;95.37
29461;BME280;16428;47.836;35.106;2024-01-15T11:57:51;100469.00;;;4.47;90.79
29461;BME280;16428;47.836;35.106;2024-01-15T12:00:18;100468.44;;;4.53;93.57
29461;BME280;16428;47.836;35.106;2024-01-15T12:02:46;100460.78;;;4.31;93.26
29461;BME280;16428;47.836;35.106;2024-01-15T12:05:16;100457.59;;;4.17;93.38
29461;BME280;16428;47.836;35.106;2024-01-15T12:07:48;100454.91;;;4.37;94.50
29461;BME280;16428;47.836;35.106;2024-01-15T12:10:16;100460.84;;;3.92;95.43
29461;BME280;16428;47.836;35.106;2024-01-15T12:13:00;100482.09;;;4.11;95.72
29461;BME280;16428;47.836;35.106;2024-01-15T12:15:29;100461.94;;;4.09;95.82
29461;BME280;16428;47.836;35.106;2024-01-15T12:17:59;100467.94;;;4.20;93.23
29461;BME280;16428;47.836;35.106;2024-01-15T12:20:27;100460.00;;;3.63;98.03
29461;BME280;16428;47.836;35.106;2024-01-15T12:22:54;100469.78;;;3.72;98.56
29461;BME280;16428;47.836;35.106;2024-01-15T12:25:33;100463.34;;;3.65;100.00
29461;BME280;16428;47.836;35.106;2024-01-15T12:28:01;100463.66;;;3.81;100.00
29461;BME280;16428;47.836;35.106;2024-01-15T12:30:30;100468.13;;;3.90;100.00
29461;BME280;16428;47.836;35.106;2024-01-15T12:33:04;100461.38;;;3.47;100.00
29461;BME280;16428;47.836;35.106;2024-01-15T12:35:36;100456.50;;;3.72;100.00
29461;BME280;16428;47.836;35.106;2024-01-15T12:38:03;100461.69;;;3.93;100.00
29461;BME280;16428;47.836;35.106;2024-01-15T12:40:32;100467.56;;;3.96;100.00
29461;BME280;16428;47.836;35.106;2024-01-15T12:43:02;100451.19;;;3.72;100.00
29461;BME280;16428;47.836;35.106;2024-01-15T12:45:30;100447.66;;;3.42;100.00
29461;BME280;16428;47.836;35.106;2024-01-15T12:47:58;100447.91;;;3.20;100.00
29461;BME280;16428;47.836;35.106;2024-01-15T12:50:25;100449.31;;;3.24;100.00
29461;BME280;16428;47.836;35.106;2024-01-15T12:52:53;100444.81;;;3.15;100.00
29461;BME280;16428;47.836;35.106;2024-01-15T12:55:20;100447.94;;;3.30;100.00